METAR Formatted Surface Weather Observation
Issued by NWS

Home | Current Version | Previous Version | Text Only | Print | Product List | Glossary On
Versions: 1 2 3 4 5 6 7 8 9 10 11 12 13 14 15 16 17 18 19 20 21 22 23
972
SAUS44 KCRP 301105
MTRNQI
SPECI KNQI 301103Z AUTO 03006KT 10SM BKN006 OVC044 24/24 A2988 RMK
AO2 CIG 005V010 T02440244 $



USA.gov is the U.S. government's official web portal to all federal, state and local government web resources and services.